sensor_id;sensor_type;location;lat;lon;timestamp;P1;durP1;ratioP1;P2;durP2;ratioP2
52186;SDS011;38161;53.020;6.598;2023-04-06T00:01:36;9.88;;;6.03;;
52186;SDS011;38161;53.020;6.598;2023-04-06T00:04:01;14.37;;;6.47;;
52186;SDS011;38161;53.020;6.598;2023-04-06T00:06:27;11.10;;;6.43;;
52186;SDS011;38161;53.020;6.598;2023-04-06T00:08:53;9.32;;;6.32;;
52186;SDS011;38161;53.020;6.598;2023-04-06T00:11:21;9.63;;;6.15;;
52186;SDS011;38161;53.020;6.598;2023-04-06T00:13:47;8.95;;;5.63;;
52186;SDS011;38161;53.020;6.598;2023-04-06T00:16:13;10.57;;;6.30;;
52186;SDS011;38161;53.020;6.598;2023-04-06T00:18:39;11.43;;;6.43;;
52186;SDS011;38161;53.020;6.598;2023-04-06T00:21:05;9.27;;;6.72;;
52186;SDS011;38161;53.020;6.598;2023-04-06T00:23:31;10.25;;;6.88;;
52186;SDS011;38161;53.020;6.598;2023-04-06T00:25:57;9.10;;;6.82;;
52186;SDS011;38161;53.020;6.598;2023-04-06T00:28:22;9.73;;;6.60;;
52186;SDS011;38161;53.020;6.598;2023-04-06T00:30:52;8.68;;;6.47;;
52186;SDS011;38161;53.020;6.598;2023-04-06T00:33:20;11.40;;;6.68;;
52186;SDS011;38161;53.020;6.598;2023-04-06T00:35:46;10.85;;;7.22;;
52186;SDS011;38161;53.020;6.598;2023-04-06T00:38:12;9.60;;;6.70;;
52186;SDS011;38161;53.020;6.598;2023-04-06T00:40:39;9.52;;;6.60;;
52186;SDS011;38161;53.020;6.598;2023-04-06T00:43:07;11.40;;;6.93;;
52186;SDS011;38161;53.020;6.598;2023-04-06T00:45:35;9.83;;;6.83;;
52186;SDS011;38161;53.020;6.598;2023-04-06T00:48:03;10.23;;;6.40;;
52186;SDS011;38161;53.020;6.598;2023-04-06T00:50:29;10.55;;;6.93;;
52186;SDS011;38161;53.020;6.598;2023-04-06T00:52:54;8.88;;;6.50;;
52186;SDS011;38161;53.020;6.598;2023-04-06T00:55:20;9.85;;;7.07;;
52186;SDS011;38161;53.020;6.598;2023-04-06T00:57:46;11.80;;;7.13;;
52186;SDS011;38161;53.020;6.598;2023-04-06T01:00:13;10.38;;;6.65;;
52186;SDS011;38161;53.020;6.598;2023-04-06T01:02:39;9.10;;;6.63;;
52186;SDS011;38161;53.020;6.598;2023-04-06T01:05:05;9.45;;;6.80;;
52186;SDS011;38161;53.020;6.598;2023-04-06T01:07:31;13.50;;;7.95;;
52186;SDS011;38161;53.020;6.598;2023-04-06T01:09:57;9.10;;;6.43;;
52186;SDS011;38161;53.020;6.598;2023-04-06T01:12:23;9.83;;;6.80;;
52186;SDS011;38161;53.020;6.598;2023-04-06T01:14:49;10.07;;;7.00;;
52186;SDS011;38161;53.020;6.598;2023-04-06T01:17:15;11.63;;;7.22;;
52186;SDS011;38161;53.020;6.598;2023-04-06T01:19:41;9.05;;;6.72;;
52186;SDS011;38161;53.020;6.598;2023-04-06T01:22:07;8.93;;;6.28;;
52186;SDS011;38161;53.020;6.598;2023-04-06T01:24:33;10.93;;;7.50;;
52186;SDS011;38161;53.020;6.598;2023-04-06T01:26:59;9.77;;;6.85;;
52186;SDS011;38161;53.020;6.598;2023-04-06T01:31:51;10.47;;;7.03;;
52186;SDS011;38161;53.020;6.598;2023-04-06T01:34:17;11.13;;;6.90;;
52186;SDS011;38161;53.020;6.598;2023-04-06T01:36:43;13.00;;;7.23;;
52186;SDS011;38161;53.020;6.598;2023-04-06T01:39:09;9.02;;;6.63;;
52186;SDS011;38161;53.020;6.598;2023-04-06T01:41:35;10.55;;;7.60;;
52186;SDS011;38161;53.020;6.598;2023-04-06T01:44:01;9.15;;;6.65;;
52186;SDS011;38161;53.020;6.598;2023-04-06T01:46:28;10.00;;;7.22;;
52186;SDS011;38161;53.020;6.598;2023-04-06T01:48:53;11.60;;;7.80;;
52186;SDS011;38161;53.020;6.598;2023-04-06T01:51:20;15.40;;;7.53;;
52186;SDS011;38161;53.020;6.598;2023-04-06T01:53:45;12.43;;;7.80;;
52186;SDS011;38161;53.020;6.598;2023-04-06T01:56:11;13.10;;;7.00;;
52186;SDS011;38161;53.020;6.598;2023-04-06T01:58:37;11.87;;;7.70;;
52186;SDS011;38161;53.020;6.598;2023-04-06T02:01:03;8.60;;;6.53;;
52186;SDS011;38161;53.020;6.598;2023-04-06T02:03:29;11.80;;;7.18;;
52186;SDS011;38161;53.020;6.598;2023-04-06T02:08:21;10.00;;;7.07;;
52186;SDS011;38161;53.020;6.598;2023-04-06T02:10:47;11.20;;;6.60;;
52186;SDS011;38161;53.020;6.598;2023-04-06T02:13:12;12.20;;;6.50;;
52186;SDS011;38161;53.020;6.598;2023-04-06T02:15:38;11.17;;;7.20;;
52186;SDS011;38161;53.020;6.598;2023-04-06T02:18:04;10.67;;;6.90;;
52186;SDS011;38161;53.020;6.598;2023-04-06T02:20:30;9.85;;;6.78;;
52186;SDS011;38161;53.020;6.598;2023-04-06T02:22:56;10.98;;;6.65;;
52186;SDS011;38161;53.020;6.598;2023-04-06T02:25:23;10.43;;;6.77;;
52186;SDS011;38161;53.020;6.598;2023-04-06T02:27:49;8.83;;;6.87;;
52186;SDS011;38161;53.020;6.598;2023-04-06T02:30:15;14.50;;;7.33;;
52186;SDS011;38161;53.020;6.598;2023-04-06T02:32:40;10.70;;;7.30;;
52186;SDS011;38161;53.020;6.598;2023-04-06T02:35:06;10.63;;;6.50;;
52186;SDS011;38161;53.020;6.598;2023-04-06T02:37:32;11.15;;;6.78;;
52186;SDS011;38161;53.020;6.598;2023-04-06T02:39:58;10.47;;;6.83;;
52186;SDS011;38161;53.020;6.598;2023-04-06T02:42:24;10.57;;;7.07;;
52186;SDS011;38161;53.020;6.598;2023-04-06T02:44:50;14.13;;;6.97;;
52186;SDS011;38161;53.020;6.598;2023-04-06T02:47:15;14.93;;;7.33;;
52186;SDS011;38161;53.020;6.598;2023-04-06T02:49:41;12.63;;;6.70;;
52186;SDS011;38161;53.020;6.598;2023-04-06T02:52:07;12.70;;;8.07;;
52186;SDS011;38161;53.020;6.598;2023-04-06T02:54:33;11.40;;;7.60;;
52186;SDS011;38161;53.020;6.598;2023-04-06T02:56:59;9.30;;;6.65;;
52186;SDS011;38161;53.020;6.598;2023-04-06T02:59:25;10.38;;;7.13;;
52186;SDS011;38161;53.020;6.598;2023-04-06T03:01:51;11.65;;;7.18;;
52186;SDS011;38161;53.020;6.598;2023-04-06T03:04:17;11.35;;;6.82;;
52186;SDS011;38161;53.020;6.598;2023-04-06T03:06:42;10.77;;;7.20;;
52186;SDS011;38161;53.020;6.598;2023-04-06T03:09:08;10.60;;;7.00;;
52186;SDS011;38161;53.020;6.598;2023-04-06T03:11:34;9.38;;;6.90;;
52186;SDS011;38161;53.020;6.598;2023-04-06T03:14:00;10.60;;;7.50;;
52186;SDS011;38161;53.020;6.598;2023-04-06T03:16:25;9.23;;;6.50;;
52186;SDS011;38161;53.020;6.598;2023-04-06T03:18:51;9.33;;;6.83;;
52186;SDS011;38161;53.020;6.598;2023-04-06T03:21:17;10.07;;;6.90;;
52186;SDS011;38161;53.020;6.598;2023-04-06T03:23:44;11.13;;;7.03;;
52186;SDS011;38161;53.020;6.598;2023-04-06T03:26:10;12.23;;;7.30;;
52186;SDS011;38161;53.020;6.598;2023-04-06T03:28:36;9.52;;;6.75;;
52186;SDS011;38161;53.020;6.598;2023-04-06T03:31:02;8.77;;;6.70;;
52186;SDS011;38161;53.020;6.598;2023-04-06T03:33:27;13.87;;;7.00;;
52186;SDS011;38161;53.020;6.598;2023-04-06T03:35:55;11.97;;;7.57;;
52186;SDS011;38161;53.020;6.598;2023-04-06T03:38:20;10.87;;;7.63;;
52186;SDS011;38161;53.020;6.598;2023-04-06T03:40:46;11.10;;;7.00;;
52186;SDS011;38161;53.020;6.598;2023-04-06T03:43:12;12.10;;;7.43;;
52186;SDS011;38161;53.020;6.598;2023-04-06T03:45:38;10.63;;;7.60;;
52186;SDS011;38161;53.020;6.598;2023-04-06T03:48:04;10.43;;;7.27;;
52186;SDS011;38161;53.020;6.598;2023-04-06T03:50:30;12.15;;;7.15;;
52186;SDS011;38161;53.020;6.598;2023-04-06T03:52:56;10.93;;;8.30;;
52186;SDS011;38161;53.020;6.598;2023-04-06T03:55:22;11.82;;;7.68;;
52186;SDS011;38161;53.020;6.598;2023-04-06T03:57:48;10.67;;;7.10;;
52186;SDS011;38161;53.020;6.598;2023-04-06T04:00:13;12.20;;;7.60;;
52186;SDS011;38161;53.020;6.598;2023-04-06T04:02:39;9.80;;;7.03;;
52186;SDS011;38161;53.020;6.598;2023-04-06T04:05:05;16.07;;;7.57;;
52186;SDS011;38161;53.020;6.598;2023-04-06T04:07:31;12.65;;;6.90;;
52186;SDS011;38161;53.020;6.598;2023-04-06T04:09:57;12.70;;;7.47;;
52186;SDS011;38161;53.020;6.598;2023-04-06T04:12:23;10.53;;;7.63;;
52186;SDS011;38161;53.020;6.598;2023-04-06T04:14:48;11.73;;;6.97;;
52186;SDS011;38161;53.020;6.598;2023-04-06T04:17:14;12.07;;;7.57;;
52186;SDS011;38161;53.020;6.598;2023-04-06T04:19:40;11.13;;;7.17;;
52186;SDS011;38161;53.020;6.598;2023-04-06T04:22:06;12.40;;;7.77;;
52186;SDS011;38161;53.020;6.598;2023-04-06T04:24:32;10.03;;;7.00;;
52186;SDS011;38161;53.020;6.598;2023-04-06T04:26:59;11.10;;;7.57;;
52186;SDS011;38161;53.020;6.598;2023-04-06T04:29:26;13.27;;;7.43;;
52186;SDS011;38161;53.020;6.598;2023-04-06T04:31:51;10.48;;;7.70;;
52186;SDS011;38161;53.020;6.598;2023-04-06T04:34:17;12.47;;;8.03;;
52186;SDS011;38161;53.020;6.598;2023-04-06T04:36:48;11.03;;;7.20;;
52186;SDS011;38161;53.020;6.598;2023-04-06T04:39:14;14.60;;;8.27;;
52186;SDS011;38161;53.020;6.598;2023-04-06T04:41:40;11.10;;;7.20;;
52186;SDS011;38161;53.020;6.598;2023-04-06T04:44:06;11.83;;;7.93;;
52186;SDS011;38161;53.020;6.598;2023-04-06T04:46:31;12.67;;;7.50;;
52186;SDS011;38161;53.020;6.598;2023-04-06T04:48:57;14.73;;;8.23;;
52186;SDS011;38161;53.020;6.598;2023-04-06T04:51:23;10.77;;;7.63;;
52186;SDS011;38161;53.020;6.598;2023-04-06T04:53:50;13.40;;;7.50;;
52186;SDS011;38161;53.020;6.598;2023-04-06T04:56:15;11.73;;;8.60;;
52186;SDS011;38161;53.020;6.598;2023-04-06T04:58:41;14.50;;;8.17;;
52186;SDS011;38161;53.020;6.598;2023-04-06T05:01:07;16.60;;;8.80;;
52186;SDS011;38161;53.020;6.598;2023-04-06T05:03:33;12.40;;;8.68;;
52186;SDS011;38161;53.020;6.598;2023-04-06T05:06:00;12.93;;;8.20;;
52186;SDS011;38161;53.020;6.598;2023-04-06T05:08:26;12.30;;;7.88;;
52186;SDS011;38161;53.020;6.598;2023-04-06T05:10:52;11.90;;;8.57;;
52186;SDS011;38161;53.020;6.598;2023-04-06T05:13:18;19.83;;;8.65;;
52186;SDS011;38161;53.020;6.598;2023-04-06T05:15:44;15.27;;;8.90;;
52186;SDS011;38161;53.020;6.598;2023-04-06T05:18:10;13.68;;;8.18;;
52186;SDS011;38161;53.020;6.598;2023-04-06T05:20:36;16.33;;;8.87;;
52186;SDS011;38161;53.020;6.598;2023-04-06T05:23:04;12.80;;;8.60;;
52186;SDS011;38161;53.020;6.598;2023-04-06T05:25:30;12.57;;;8.80;;
52186;SDS011;38161;53.020;6.598;2023-04-06T05:27:57;13.77;;;8.35;;
52186;SDS011;38161;53.020;6.598;2023-04-06T05:30:23;13.63;;;8.30;;
52186;SDS011;38161;53.020;6.598;2023-04-06T05:32:48;12.87;;;8.33;;
52186;SDS011;38161;53.020;6.598;2023-04-06T05:35:15;13.57;;;8.38;;
52186;SDS011;38161;53.020;6.598;2023-04-06T05:37:42;14.47;;;9.27;;
52186;SDS011;38161;53.020;6.598;2023-04-06T05:40:08;14.02;;;8.98;;
52186;SDS011;38161;53.020;6.598;2023-04-06T05:42:41;13.32;;;9.02;;
52186;SDS011;38161;53.020;6.598;2023-04-06T05:45:08;14.37;;;8.63;;
52186;SDS011;38161;53.020;6.598;2023-04-06T05:47:35;15.47;;;8.70;;
52186;SDS011;38161;53.020;6.598;2023-04-06T05:50:02;14.65;;;8.75;;
52186;SDS011;38161;53.020;6.598;2023-04-06T05:52:28;15.57;;;9.23;;
52186;SDS011;38161;53.020;6.598;2023-04-06T05:54:53;16.27;;;9.73;;
52186;SDS011;38161;53.020;6.598;2023-04-06T05:57:19;15.83;;;9.80;;
52186;SDS011;38161;53.020;6.598;2023-04-06T05:59:45;15.07;;;9.60;;
52186;SDS011;38161;53.020;6.598;2023-04-06T06:02:11;15.53;;;9.73;;
52186;SDS011;38161;53.020;6.598;2023-04-06T06:04:36;18.10;;;10.55;;
52186;SDS011;38161;53.020;6.598;2023-04-06T06:07:02;16.03;;;10.33;;
52186;SDS011;38161;53.020;6.598;2023-04-06T06:09:28;17.02;;;10.23;;
52186;SDS011;38161;53.020;6.598;2023-04-06T06:11:54;16.73;;;11.07;;
52186;SDS011;38161;53.020;6.598;2023-04-06T06:14:20;20.65;;;10.98;;
52186;SDS011;38161;53.020;6.598;2023-04-06T06:16:47;19.67;;;11.40;;
52186;SDS011;38161;53.020;6.598;2023-04-06T06:19:12;19.88;;;11.20;;
52186;SDS011;38161;53.020;6.598;2023-04-06T06:21:38;17.73;;;11.65;;
52186;SDS011;38161;53.020;6.598;2023-04-06T06:24:04;17.38;;;11.27;;
52186;SDS011;38161;53.020;6.598;2023-04-06T06:26:30;20.00;;;12.00;;
52186;SDS011;38161;53.020;6.598;2023-04-06T06:28:56;18.03;;;11.60;;
52186;SDS011;38161;53.020;6.598;2023-04-06T06:31:22;18.67;;;11.87;;
52186;SDS011;38161;53.020;6.598;2023-04-06T06:33:48;20.30;;;12.47;;
52186;SDS011;38161;53.020;6.598;2023-04-06T06:36:17;17.63;;;11.10;;
52186;SDS011;38161;53.020;6.598;2023-04-06T06:38:43;18.25;;;12.75;;
52186;SDS011;38161;53.020;6.598;2023-04-06T06:41:09;18.23;;;11.55;;
52186;SDS011;38161;53.020;6.598;2023-04-06T06:43:35;19.05;;;12.05;;
52186;SDS011;38161;53.020;6.598;2023-04-06T06:46:01;28.33;;;11.33;;
52186;SDS011;38161;53.020;6.598;2023-04-06T06:48:27;19.30;;;12.32;;
52186;SDS011;38161;53.020;6.598;2023-04-06T06:50:53;20.13;;;13.20;;
52186;SDS011;38161;53.020;6.598;2023-04-06T06:53:19;20.15;;;12.07;;
52186;SDS011;38161;53.020;6.598;2023-04-06T06:55:45;19.08;;;12.73;;
52186;SDS011;38161;53.020;6.598;2023-04-06T06:58:11;21.23;;;12.73;;
52186;SDS011;38161;53.020;6.598;2023-04-06T07:00:37;23.65;;;13.13;;
52186;SDS011;38161;53.020;6.598;2023-04-06T07:03:03;18.85;;;13.00;;
52186;SDS011;38161;53.020;6.598;2023-04-06T07:05:29;20.97;;;12.60;;
52186;SDS011;38161;53.020;6.598;2023-04-06T07:07:55;19.13;;;12.37;;
52186;SDS011;38161;53.020;6.598;2023-04-06T07:10:21;23.25;;;13.73;;
52186;SDS011;38161;53.020;6.598;2023-04-06T07:12:47;20.73;;;13.15;;
52186;SDS011;38161;53.020;6.598;2023-04-06T07:15:13;23.67;;;14.00;;
52186;SDS011;38161;53.020;6.598;2023-04-06T07:17:39;21.35;;;13.50;;
52186;SDS011;38161;53.020;6.598;2023-04-06T07:20:10;24.83;;;14.63;;
52186;SDS011;38161;53.020;6.598;2023-04-06T07:22:37;21.27;;;13.07;;
52186;SDS011;38161;53.020;6.598;2023-04-06T07:25:03;21.20;;;12.87;;
52186;SDS011;38161;53.020;6.598;2023-04-06T07:27:30;24.27;;;12.85;;
52186;SDS011;38161;53.020;6.598;2023-04-06T07:29:55;20.43;;;12.83;;
52186;SDS011;38161;53.020;6.598;2023-04-06T07:32:21;20.07;;;11.17;;
52186;SDS011;38161;53.020;6.598;2023-04-06T07:34:47;19.37;;;13.13;;
52186;SDS011;38161;53.020;6.598;2023-04-06T07:37:13;23.23;;;12.83;;
52186;SDS011;38161;53.020;6.598;2023-04-06T07:39:39;22.88;;;13.00;;
52186;SDS011;38161;53.020;6.598;2023-04-06T07:42:05;19.23;;;12.48;;
52186;SDS011;38161;53.020;6.598;2023-04-06T07:44:31;15.50;;;11.68;;
52186;SDS011;38161;53.020;6.598;2023-04-06T07:46:57;18.33;;;12.03;;
52186;SDS011;38161;53.020;6.598;2023-04-06T07:49:23;18.93;;;12.30;;
52186;SDS011;38161;53.020;6.598;2023-04-06T07:51:48;17.30;;;11.75;;
52186;SDS011;38161;53.020;6.598;2023-04-06T07:54:14;17.50;;;11.43;;
52186;SDS011;38161;53.020;6.598;2023-04-06T07:56:40;19.90;;;12.40;;
52186;SDS011;38161;53.020;6.598;2023-04-06T07:59:06;23.17;;;13.40;;
52186;SDS011;38161;53.020;6.598;2023-04-06T08:01:32;17.57;;;12.30;;
52186;SDS011;38161;53.020;6.598;2023-04-06T08:03:58;20.23;;;13.30;;
52186;SDS011;38161;53.020;6.598;2023-04-06T08:06:24;18.48;;;12.30;;
52186;SDS011;38161;53.020;6.598;2023-04-06T08:08:50;19.88;;;12.50;;
52186;SDS011;38161;53.020;6.598;2023-04-06T08:11:16;17.73;;;11.20;;
52186;SDS011;38161;53.020;6.598;2023-04-06T08:13:41;23.57;;;11.97;;
52186;SDS011;38161;53.020;6.598;2023-04-06T08:16:07;19.87;;;12.50;;
52186;SDS011;38161;53.020;6.598;2023-04-06T08:18:33;19.20;;;11.48;;
52186;SDS011;38161;53.020;6.598;2023-04-06T08:20:59;18.13;;;11.47;;
52186;SDS011;38161;53.020;6.598;2023-04-06T08:23:25;18.65;;;11.05;;
52186;SDS011;38161;53.020;6.598;2023-04-06T08:25:50;18.80;;;12.23;;
52186;SDS011;38161;53.020;6.598;2023-04-06T08:28:19;17.15;;;11.48;;
52186;SDS011;38161;53.020;6.598;2023-04-06T08:30:46;18.10;;;11.93;;
52186;SDS011;38161;53.020;6.598;2023-04-06T08:33:12;21.45;;;11.90;;
52186;SDS011;38161;53.020;6.598;2023-04-06T08:35:38;18.90;;;11.63;;
52186;SDS011;38161;53.020;6.598;2023-04-06T08:38:03;19.50;;;11.80;;
52186;SDS011;38161;53.020;6.598;2023-04-06T08:40:29;18.30;;;12.20;;
52186;SDS011;38161;53.020;6.598;2023-04-06T08:43:00;17.73;;;11.30;;
52186;SDS011;38161;53.020;6.598;2023-04-06T08:45:33;20.35;;;12.60;;
52186;SDS011;38161;53.020;6.598;2023-04-06T08:47:59;18.30;;;12.07;;
52186;SDS011;38161;53.020;6.598;2023-04-06T08:50:27;15.07;;;11.10;;
52186;SDS011;38161;53.020;6.598;2023-04-06T08:52:57;17.83;;;10.98;;
52186;SDS011;38161;53.020;6.598;2023-04-06T08:55:24;18.30;;;11.73;;
52186;SDS011;38161;53.020;6.598;2023-04-06T08:57:50;14.93;;;10.93;;
52186;SDS011;38161;53.020;6.598;2023-04-06T09:00:20;16.83;;;11.85;;
52186;SDS011;38161;53.020;6.598;2023-04-06T09:02:47;22.13;;;11.98;;
52186;SDS011;38161;53.020;6.598;2023-04-06T09:05:15;20.88;;;12.00;;
52186;SDS011;38161;53.020;6.598;2023-04-06T09:07:41;20.40;;;12.57;;
52186;SDS011;38161;53.020;6.598;2023-04-06T09:10:07;16.67;;;11.18;;
52186;SDS011;38161;53.020;6.598;2023-04-06T09:12:34;18.33;;;11.38;;
52186;SDS011;38161;53.020;6.598;2023-04-06T09:15:00;17.60;;;12.32;;
52186;SDS011;38161;53.020;6.598;2023-04-06T09:19:57;20.17;;;12.55;;
52186;SDS011;38161;53.020;6.598;2023-04-06T09:22:24;18.17;;;12.65;;
52186;SDS011;38161;53.020;6.598;2023-04-06T09:24:52;21.30;;;13.05;;
52186;SDS011;38161;53.020;6.598;2023-04-06T09:27:35;19.55;;;13.23;;
52186;SDS011;38161;53.020;6.598;2023-04-06T09:30:09;17.63;;;12.27;;
52186;SDS011;38161;53.020;6.598;2023-04-06T09:35:16;21.02;;;13.70;;
52186;SDS011;38161;53.020;6.598;2023-04-06T09:37:43;21.23;;;13.15;;
52186;SDS011;38161;53.020;6.598;2023-04-06T09:42:35;20.65;;;13.73;;
52186;SDS011;38161;53.020;6.598;2023-04-06T09:45:01;19.10;;;13.30;;
52186;SDS011;38161;53.020;6.598;2023-04-06T09:47:28;20.35;;;13.07;;
52186;SDS011;38161;53.020;6.598;2023-04-06T09:49:56;22.95;;;14.43;;
52186;SDS011;38161;53.020;6.598;2023-04-06T09:52:26;25.92;;;15.30;;
52186;SDS011;38161;53.020;6.598;2023-04-06T09:54:58;22.95;;;15.00;;
52186;SDS011;38161;53.020;6.598;2023-04-06T10:00:12;23.42;;;15.95;;
52186;SDS011;38161;53.020;6.598;2023-04-06T10:02:45;23.20;;;16.63;;
52186;SDS011;38161;53.020;6.598;2023-04-06T10:07:56;26.10;;;16.38;;
52186;SDS011;38161;53.020;6.598;2023-04-06T10:10:25;24.98;;;15.98;;
52186;SDS011;38161;53.020;6.598;2023-04-06T10:12:52;26.85;;;16.35;;
52186;SDS011;38161;53.020;6.598;2023-04-06T10:15:19;24.40;;;16.83;;
52186;SDS011;38161;53.020;6.598;2023-04-06T10:17:45;27.90;;;18.10;;
52186;SDS011;38161;53.020;6.598;2023-04-06T10:22:58;26.15;;;17.52;;
52186;SDS011;38161;53.020;6.598;2023-04-06T10:25:31;32.63;;;18.13;;
52186;SDS011;38161;53.020;6.598;2023-04-06T10:28:02;28.83;;;19.23;;
52186;SDS011;38161;53.020;6.598;2023-04-06T10:30:31;30.33;;;19.23;;
52186;SDS011;38161;53.020;6.598;2023-04-06T10:32:58;31.98;;;19.80;;
52186;SDS011;38161;53.020;6.598;2023-04-06T10:35:24;30.00;;;19.10;;
52186;SDS011;38161;53.020;6.598;2023-04-06T10:38:03;28.67;;;18.27;;
52186;SDS011;38161;53.020;6.598;2023-04-06T10:40:30;31.88;;;17.42;;
52186;SDS011;38161;53.020;6.598;2023-04-06T10:43:09;29.48;;;19.17;;
52186;SDS011;38161;53.020;6.598;2023-04-06T10:45:36;28.27;;;18.38;;
52186;SDS011;38161;53.020;6.598;2023-04-06T10:50:46;27.95;;;18.33;;
52186;SDS011;38161;53.020;6.598;2023-04-06T10:53:22;26.58;;;18.30;;
52186;SDS011;38161;53.020;6.598;2023-04-06T10:55:56;29.85;;;18.73;;
52186;SDS011;38161;53.020;6.598;2023-04-06T10:58:25;34.35;;;19.48;;
52186;SDS011;38161;53.020;6.598;2023-04-06T11:00:52;30.20;;;19.65;;
52186;SDS011;38161;53.020;6.598;2023-04-06T11:03:20;29.17;;;19.88;;
52186;SDS011;38161;53.020;6.598;2023-04-06T11:05:49;29.52;;;19.63;;
52186;SDS011;38161;53.020;6.598;2023-04-06T11:08:25;28.30;;;19.77;;
52186;SDS011;38161;53.020;6.598;2023-04-06T11:13:50;34.80;;;21.13;;
52186;SDS011;38161;53.020;6.598;2023-04-06T11:16:20;33.45;;;20.50;;
52186;SDS011;38161;53.020;6.598;2023-04-06T11:21:36;32.20;;;22.48;;
52186;SDS011;38161;53.020;6.598;2023-04-06T11:24:05;31.00;;;22.00;;
52186;SDS011;38161;53.020;6.598;2023-04-06T11:26:31;32.28;;;21.52;;
52186;SDS011;38161;53.020;6.598;2023-04-06T11:29:01;32.13;;;22.77;;
52186;SDS011;38161;53.020;6.598;2023-04-06T11:31:30;33.78;;;22.23;;
52186;SDS011;38161;53.020;6.598;2023-04-06T11:33:56;32.33;;;22.38;;
52186;SDS011;38161;53.020;6.598;2023-04-06T11:36:22;36.58;;;22.73;;
52186;SDS011;38161;53.020;6.598;2023-04-06T11:38:48;32.22;;;23.30;;
52186;SDS011;38161;53.020;6.598;2023-04-06T11:41:14;34.40;;;22.52;;
52186;SDS011;38161;53.020;6.598;2023-04-06T11:43:45;43.42;;;22.10;;
52186;SDS011;38161;53.020;6.598;2023-04-06T11:46:16;34.78;;;22.38;;
52186;SDS011;38161;53.020;6.598;2023-04-06T11:48:46;31.25;;;22.67;;
52186;SDS011;38161;53.020;6.598;2023-04-06T11:51:11;34.63;;;23.23;;
52186;SDS011;38161;53.020;6.598;2023-04-06T11:53:44;34.03;;;23.48;;
52186;SDS011;38161;53.020;6.598;2023-04-06T11:56:22;38.17;;;23.73;;
52186;SDS011;38161;53.020;6.598;2023-04-06T11:58:49;36.08;;;24.35;;
52186;SDS011;38161;53.020;6.598;2023-04-06T12:01:15;35.15;;;23.15;;
52186;SDS011;38161;53.020;6.598;2023-04-06T12:03:41;35.38;;;22.70;;
52186;SDS011;38161;53.020;6.598;2023-04-06T12:06:06;39.20;;;23.00;;
52186;SDS011;38161;53.020;6.598;2023-04-06T12:08:32;34.88;;;23.52;;
52186;SDS011;38161;53.020;6.598;2023-04-06T12:10:58;32.25;;;23.45;;
52186;SDS011;38161;53.020;6.598;2023-04-06T12:13:24;36.40;;;23.27;;
52186;SDS011;38161;53.020;6.598;2023-04-06T12:15:50;36.72;;;24.45;;
52186;SDS011;38161;53.020;6.598;2023-04-06T12:18:16;33.03;;;22.93;;
52186;SDS011;38161;53.020;6.598;2023-04-06T12:20:41;32.70;;;22.03;;
52186;SDS011;38161;53.020;6.598;2023-04-06T12:23:08;30.38;;;21.92;;
52186;SDS011;38161;53.020;6.598;2023-04-06T12:25:33;38.15;;;22.75;;
52186;SDS011;38161;53.020;6.598;2023-04-06T12:27:59;34.20;;;22.88;;
52186;SDS011;38161;53.020;6.598;2023-04-06T12:30:25;30.33;;;22.52;;
52186;SDS011;38161;53.020;6.598;2023-04-06T12:32:51;32.92;;;21.70;;
52186;SDS011;38161;53.020;6.598;2023-04-06T12:35:17;36.58;;;22.67;;
52186;SDS011;38161;53.020;6.598;2023-04-06T12:37:42;32.97;;;22.20;;
52186;SDS011;38161;53.020;6.598;2023-04-06T12:40:08;33.50;;;23.05;;
52186;SDS011;38161;53.020;6.598;2023-04-06T12:42:38;31.70;;;22.75;;
52186;SDS011;38161;53.020;6.598;2023-04-06T12:45:05;33.50;;;22.65;;
52186;SDS011;38161;53.020;6.598;2023-04-06T12:47:32;35.75;;;22.83;;
52186;SDS011;38161;53.020;6.598;2023-04-06T12:49:58;30.20;;;21.88;;
52186;SDS011;38161;53.020;6.598;2023-04-06T12:52:24;32.10;;;22.37;;
52186;SDS011;38161;53.020;6.598;2023-04-06T12:54:49;38.50;;;22.55;;
52186;SDS011;38161;53.020;6.598;2023-04-06T12:59:45;32.95;;;20.83;;
52186;SDS011;38161;53.020;6.598;2023-04-06T13:02:11;39.15;;;22.27;;
52186;SDS011;38161;53.020;6.598;2023-04-06T13:04:37;33.55;;;21.77;;
52186;SDS011;38161;53.020;6.598;2023-04-06T13:07:02;32.40;;;22.73;;
52186;SDS011;38161;53.020;6.598;2023-04-06T13:09:28;32.67;;;21.50;;
52186;SDS011;38161;53.020;6.598;2023-04-06T13:11:54;33.35;;;22.23;;
52186;SDS011;38161;53.020;6.598;2023-04-06T13:14:20;32.08;;;21.70;;
52186;SDS011;38161;53.020;6.598;2023-04-06T13:16:46;32.42;;;22.90;;
52186;SDS011;38161;53.020;6.598;2023-04-06T13:19:12;32.58;;;21.52;;
52186;SDS011;38161;53.020;6.598;2023-04-06T13:21:38;30.65;;;20.85;;
52186;SDS011;38161;53.020;6.598;2023-04-06T13:24:04;30.02;;;21.15;;
52186;SDS011;38161;53.020;6.598;2023-04-06T13:26:30;36.03;;;22.40;;
52186;SDS011;38161;53.020;6.598;2023-04-06T13:28:56;31.23;;;19.83;;
52186;SDS011;38161;53.020;6.598;2023-04-06T13:31:22;26.08;;;17.90;;
52186;SDS011;38161;53.020;6.598;2023-04-06T13:33:48;25.40;;;18.67;;
52186;SDS011;38161;53.020;6.598;2023-04-06T13:36:13;27.10;;;18.83;;
52186;SDS011;38161;53.020;6.598;2023-04-06T13:38:40;31.30;;;20.33;;
52186;SDS011;38161;53.020;6.598;2023-04-06T13:41:06;29.83;;;21.02;;
52186;SDS011;38161;53.020;6.598;2023-04-06T13:43:32;28.38;;;19.58;;
52186;SDS011;38161;53.020;6.598;2023-04-06T13:45:57;32.45;;;19.60;;
52186;SDS011;38161;53.020;6.598;2023-04-06T13:48:25;27.15;;;18.67;;
52186;SDS011;38161;53.020;6.598;2023-04-06T13:50:51;32.10;;;19.63;;
52186;SDS011;38161;53.020;6.598;2023-04-06T13:53:17;29.30;;;20.08;;
52186;SDS011;38161;53.020;6.598;2023-04-06T13:55:43;30.15;;;20.17;;
52186;SDS011;38161;53.020;6.598;2023-04-06T13:58:09;26.27;;;17.65;;
52186;SDS011;38161;53.020;6.598;2023-04-06T14:00:35;26.65;;;18.40;;
52186;SDS011;38161;53.020;6.598;2023-04-06T14:05:30;25.00;;;17.10;;
52186;SDS011;38161;53.020;6.598;2023-04-06T14:07:59;26.98;;;16.48;;
52186;SDS011;38161;53.020;6.598;2023-04-06T14:10:25;24.90;;;17.05;;
52186;SDS011;38161;53.020;6.598;2023-04-06T14:12:52;27.52;;;17.23;;
52186;SDS011;38161;53.020;6.598;2023-04-06T14:15:18;25.95;;;17.45;;
52186;SDS011;38161;53.020;6.598;2023-04-06T14:17:44;25.63;;;15.43;;
52186;SDS011;38161;53.020;6.598;2023-04-06T14:20:10;21.45;;;15.82;;
52186;SDS011;38161;53.020;6.598;2023-04-06T14:22:43;24.23;;;14.65;;
52186;SDS011;38161;53.020;6.598;2023-04-06T14:25:09;22.90;;;14.23;;
52186;SDS011;38161;53.020;6.598;2023-04-06T14:27:36;18.70;;;12.88;;
52186;SDS011;38161;53.020;6.598;2023-04-06T14:30:02;20.73;;;13.55;;
52186;SDS011;38161;53.020;6.598;2023-04-06T14:32:28;22.00;;;14.75;;
52186;SDS011;38161;53.020;6.598;2023-04-06T14:34:54;20.58;;;13.88;;
52186;SDS011;38161;53.020;6.598;2023-04-06T14:37:19;21.77;;;14.20;;
52186;SDS011;38161;53.020;6.598;2023-04-06T14:39:47;20.02;;;14.52;;
52186;SDS011;38161;53.020;6.598;2023-04-06T14:42:13;22.05;;;15.68;;
52186;SDS011;38161;53.020;6.598;2023-04-06T14:44:38;22.88;;;14.60;;
52186;SDS011;38161;53.020;6.598;2023-04-06T14:47:08;21.52;;;14.40;;
52186;SDS011;38161;53.020;6.598;2023-04-06T14:49:35;21.45;;;14.88;;
52186;SDS011;38161;53.020;6.598;2023-04-06T14:52:01;25.75;;;15.80;;
52186;SDS011;38161;53.020;6.598;2023-04-06T14:54:28;24.80;;;14.88;;
52186;SDS011;38161;53.020;6.598;2023-04-06T14:56:54;20.60;;;14.40;;
52186;SDS011;38161;53.020;6.598;2023-04-06T14:59:20;19.25;;;13.23;;